sensor_id;sensor_type;location;lat;lon;timestamp;P1;durP1;ratioP1;P2;durP2;ratioP2
23171;SDS011;11754;42.664;23.594;2023-02-23T00:01:15;15.00;;;8.40;;
23171;SDS011;11754;42.664;23.594;2023-02-23T00:03:42;16.25;;;7.85;;
23171;SDS011;11754;42.664;23.594;2023-02-23T00:06:09;13.43;;;8.40;;
23171;SDS011;11754;42.664;23.594;2023-02-23T00:08:35;14.57;;;8.27;;
23171;SDS011;11754;42.664;23.594;2023-02-23T00:11:02;16.70;;;7.75;;
23171;SDS011;11754;42.664;23.594;2023-02-23T00:13:29;14.70;;;7.95;;
23171;SDS011;11754;42.664;23.594;2023-02-23T00:15:56;14.80;;;8.48;;
23171;SDS011;11754;42.664;23.594;2023-02-23T00:18:21;16.27;;;8.60;;
23171;SDS011;11754;42.664;23.594;2023-02-23T00:20:56;15.40;;;8.30;;
23171;SDS011;11754;42.664;23.594;2023-02-23T00:23:22;13.60;;;7.57;;
23171;SDS011;11754;42.664;23.594;2023-02-23T00:25:47;12.40;;;7.47;;
23171;SDS011;11754;42.664;23.594;2023-02-23T00:28:13;17.92;;;8.20;;
23171;SDS011;11754;42.664;23.594;2023-02-23T00:30:38;13.45;;;7.28;;
23171;SDS011;11754;42.664;23.594;2023-02-23T00:33:03;12.23;;;7.55;;
23171;SDS011;11754;42.664;23.594;2023-02-23T00:35:29;17.38;;;8.55;;
23171;SDS011;11754;42.664;23.594;2023-02-23T00:37:54;18.00;;;9.48;;
23171;SDS011;11754;42.664;23.594;2023-02-23T00:40:20;13.73;;;8.43;;
23171;SDS011;11754;42.664;23.594;2023-02-23T00:42:47;21.75;;;10.70;;
23171;SDS011;11754;42.664;23.594;2023-02-23T00:45:14;20.10;;;11.50;;
23171;SDS011;11754;42.664;23.594;2023-02-23T00:47:43;29.70;;;16.30;;
23171;SDS011;11754;42.664;23.594;2023-02-23T00:50:10;33.28;;;16.63;;
23171;SDS011;11754;42.664;23.594;2023-02-23T00:52:38;25.42;;;12.80;;
23171;SDS011;11754;42.664;23.594;2023-02-23T00:55:05;29.48;;;15.32;;
23171;SDS011;11754;42.664;23.594;2023-02-23T00:57:32;22.20;;;11.35;;
23171;SDS011;11754;42.664;23.594;2023-02-23T00:59:58;29.35;;;12.18;;
23171;SDS011;11754;42.664;23.594;2023-02-23T01:02:23;26.63;;;11.60;;
23171;SDS011;11754;42.664;23.594;2023-02-23T01:04:49;27.77;;;13.23;;
23171;SDS011;11754;42.664;23.594;2023-02-23T01:07:14;18.92;;;9.52;;
23171;SDS011;11754;42.664;23.594;2023-02-23T01:09:40;20.85;;;9.60;;
23171;SDS011;11754;42.664;23.594;2023-02-23T01:12:05;19.60;;;8.88;;
23171;SDS011;11754;42.664;23.594;2023-02-23T01:14:31;19.23;;;8.85;;
23171;SDS011;11754;42.664;23.594;2023-02-23T01:16:57;17.25;;;9.18;;
23171;SDS011;11754;42.664;23.594;2023-02-23T01:19:23;21.50;;;10.55;;
23171;SDS011;11754;42.664;23.594;2023-02-23T01:21:48;50.15;;;25.00;;
23171;SDS011;11754;42.664;23.594;2023-02-23T01:24:13;53.47;;;27.92;;
23171;SDS011;11754;42.664;23.594;2023-02-23T01:26:40;31.80;;;17.73;;
23171;SDS011;11754;42.664;23.594;2023-02-23T01:29:08;20.25;;;11.27;;
23171;SDS011;11754;42.664;23.594;2023-02-23T01:31:40;23.27;;;11.98;;
23171;SDS011;11754;42.664;23.594;2023-02-23T01:34:08;14.35;;;8.60;;
23171;SDS011;11754;42.664;23.594;2023-02-23T01:36:36;14.20;;;7.55;;
23171;SDS011;11754;42.664;23.594;2023-02-23T01:39:03;11.60;;;7.10;;
23171;SDS011;11754;42.664;23.594;2023-02-23T01:41:32;13.95;;;8.10;;
23171;SDS011;11754;42.664;23.594;2023-02-23T01:46:33;12.80;;;7.40;;
23171;SDS011;11754;42.664;23.594;2023-02-23T01:49:00;11.77;;;7.32;;
23171;SDS011;11754;42.664;23.594;2023-02-23T01:51:29;10.88;;;7.40;;
23171;SDS011;11754;42.664;23.594;2023-02-23T01:54:02;12.07;;;7.15;;
23171;SDS011;11754;42.664;23.594;2023-02-23T01:56:32;12.25;;;7.50;;
23171;SDS011;11754;42.664;23.594;2023-02-23T01:59:02;15.73;;;8.70;;
23171;SDS011;11754;42.664;23.594;2023-02-23T02:01:31;17.10;;;9.20;;
23171;SDS011;11754;42.664;23.594;2023-02-23T02:03:57;16.60;;;9.98;;
23171;SDS011;11754;42.664;23.594;2023-02-23T02:06:26;14.48;;;9.45;;
23171;SDS011;11754;42.664;23.594;2023-02-23T02:08:53;20.25;;;10.75;;
23171;SDS011;11754;42.664;23.594;2023-02-23T02:11:22;33.13;;;16.33;;
23171;SDS011;11754;42.664;23.594;2023-02-23T02:14:00;36.35;;;17.63;;
23171;SDS011;11754;42.664;23.594;2023-02-23T02:21:47;13.38;;;8.20;;
23171;SDS011;11754;42.664;23.594;2023-02-23T02:27:20;14.75;;;7.72;;
23171;SDS011;11754;42.664;23.594;2023-02-23T02:37:53;15.70;;;9.07;;
23171;SDS011;11754;42.664;23.594;2023-02-23T02:56:36;13.07;;;7.70;;
23171;SDS011;11754;42.664;23.594;2023-02-23T02:59:25;11.75;;;7.45;;
23171;SDS011;11754;42.664;23.594;2023-02-23T03:02:15;20.38;;;7.90;;
23171;SDS011;11754;42.664;23.594;2023-02-23T03:05:06;15.80;;;9.50;;
23171;SDS011;11754;42.664;23.594;2023-02-23T03:08:03;15.75;;;9.30;;
23171;SDS011;11754;42.664;23.594;2023-02-23T03:11:02;17.23;;;9.70;;
23171;SDS011;11754;42.664;23.594;2023-02-23T03:17:45;14.98;;;9.40;;
23171;SDS011;11754;42.664;23.594;2023-02-23T03:26:38;20.95;;;11.13;;
23171;SDS011;11754;42.664;23.594;2023-02-23T03:32:23;15.73;;;9.38;;
23171;SDS011;11754;42.664;23.594;2023-02-23T03:38:44;14.73;;;8.63;;
23171;SDS011;11754;42.664;23.594;2023-02-23T03:41:37;17.48;;;9.00;;
23171;SDS011;11754;42.664;23.594;2023-02-23T03:44:29;18.08;;;9.95;;
23171;SDS011;11754;42.664;23.594;2023-02-23T03:47:16;19.40;;;10.07;;
23171;SDS011;11754;42.664;23.594;2023-02-23T03:50:05;20.17;;;9.63;;
23171;SDS011;11754;42.664;23.594;2023-02-23T03:52:53;19.00;;;10.35;;
23171;SDS011;11754;42.664;23.594;2023-02-23T03:55:41;17.48;;;10.43;;
23171;SDS011;11754;42.664;23.594;2023-02-23T03:58:50;17.58;;;9.25;;
23171;SDS011;11754;42.664;23.594;2023-02-23T04:01:37;29.73;;;11.50;;
23171;SDS011;11754;42.664;23.594;2023-02-23T04:04:22;19.98;;;9.95;;
23171;SDS011;11754;42.664;23.594;2023-02-23T04:07:10;15.15;;;9.10;;
23171;SDS011;11754;42.664;23.594;2023-02-23T04:09:59;17.90;;;8.57;;
23171;SDS011;11754;42.664;23.594;2023-02-23T04:15:37;21.95;;;9.50;;
23171;SDS011;11754;42.664;23.594;2023-02-23T04:18:10;21.75;;;11.55;;
23171;SDS011;11754;42.664;23.594;2023-02-23T04:20:38;33.65;;;10.20;;
23171;SDS011;11754;42.664;23.594;2023-02-23T04:23:03;29.02;;;9.68;;
23171;SDS011;11754;42.664;23.594;2023-02-23T04:25:29;28.02;;;9.85;;
23171;SDS011;11754;42.664;23.594;2023-02-23T04:27:55;39.45;;;10.60;;
23171;SDS011;11754;42.664;23.594;2023-02-23T04:30:20;50.05;;;10.88;;
23171;SDS011;11754;42.664;23.594;2023-02-23T04:32:49;55.72;;;14.15;;
23171;SDS011;11754;42.664;23.594;2023-02-23T04:35:14;42.22;;;12.00;;
23171;SDS011;11754;42.664;23.594;2023-02-23T04:37:40;34.30;;;12.30;;
23171;SDS011;11754;42.664;23.594;2023-02-23T04:40:05;54.60;;;13.18;;
23171;SDS011;11754;42.664;23.594;2023-02-23T04:42:31;87.85;;;19.10;;
23171;SDS011;11754;42.664;23.594;2023-02-23T04:44:57;99.00;;;33.35;;
23171;SDS011;11754;42.664;23.594;2023-02-23T04:47:23;107.65;;;39.92;;
23171;SDS011;11754;42.664;23.594;2023-02-23T04:49:48;162.95;;;70.43;;
23171;SDS011;11754;42.664;23.594;2023-02-23T04:52:13;97.88;;;45.15;;
23171;SDS011;11754;42.664;23.594;2023-02-23T04:54:39;61.03;;;28.73;;
23171;SDS011;11754;42.664;23.594;2023-02-23T04:57:05;98.97;;;44.60;;
23171;SDS011;11754;42.664;23.594;2023-02-23T04:59:31;87.53;;;30.35;;
23171;SDS011;11754;42.664;23.594;2023-02-23T05:01:57;75.53;;;27.90;;
23171;SDS011;11754;42.664;23.594;2023-02-23T05:04:22;78.95;;;27.77;;
23171;SDS011;11754;42.664;23.594;2023-02-23T05:06:48;69.32;;;26.15;;
23171;SDS011;11754;42.664;23.594;2023-02-23T05:09:14;59.58;;;24.02;;
23171;SDS011;11754;42.664;23.594;2023-02-23T05:11:39;73.68;;;25.05;;
23171;SDS011;11754;42.664;23.594;2023-02-23T05:14:04;85.03;;;26.10;;
23171;SDS011;11754;42.664;23.594;2023-02-23T05:16:30;81.00;;;25.02;;
23171;SDS011;11754;42.664;23.594;2023-02-23T05:18:56;66.25;;;23.75;;
23171;SDS011;11754;42.664;23.594;2023-02-23T05:21:21;67.18;;;24.55;;
23171;SDS011;11754;42.664;23.594;2023-02-23T05:23:47;96.45;;;38.70;;
23171;SDS011;11754;42.664;23.594;2023-02-23T05:26:13;88.22;;;34.38;;
23171;SDS011;11754;42.664;23.594;2023-02-23T05:28:39;83.47;;;33.72;;
23171;SDS011;11754;42.664;23.594;2023-02-23T05:31:06;63.80;;;33.33;;
23171;SDS011;11754;42.664;23.594;2023-02-23T05:33:32;49.55;;;25.25;;
23171;SDS011;11754;42.664;23.594;2023-02-23T05:35:58;43.25;;;17.35;;
23171;SDS011;11754;42.664;23.594;2023-02-23T05:38:23;44.45;;;20.38;;
23171;SDS011;11754;42.664;23.594;2023-02-23T05:40:50;67.25;;;29.95;;
23171;SDS011;11754;42.664;23.594;2023-02-23T05:43:15;52.92;;;26.55;;
23171;SDS011;11754;42.664;23.594;2023-02-23T05:45:41;71.38;;;34.60;;
23171;SDS011;11754;42.664;23.594;2023-02-23T05:48:08;81.35;;;32.63;;
23171;SDS011;11754;42.664;23.594;2023-02-23T05:50:34;37.75;;;21.20;;
23171;SDS011;11754;42.664;23.594;2023-02-23T05:53:00;30.10;;;19.70;;
23171;SDS011;11754;42.664;23.594;2023-02-23T05:55:25;44.40;;;27.67;;
23171;SDS011;11754;42.664;23.594;2023-02-23T05:57:51;58.53;;;35.30;;
23171;SDS011;11754;42.664;23.594;2023-02-23T06:00:16;50.45;;;31.38;;
23171;SDS011;11754;42.664;23.594;2023-02-23T06:02:42;42.33;;;26.30;;
23171;SDS011;11754;42.664;23.594;2023-02-23T06:05:08;37.28;;;23.65;;
23171;SDS011;11754;42.664;23.594;2023-02-23T06:07:34;30.00;;;21.92;;
23171;SDS011;11754;42.664;23.594;2023-02-23T06:10:00;41.15;;;20.80;;
23171;SDS011;11754;42.664;23.594;2023-02-23T06:12:25;29.42;;;19.42;;
23171;SDS011;11754;42.664;23.594;2023-02-23T06:14:50;32.88;;;19.85;;
23171;SDS011;11754;42.664;23.594;2023-02-23T06:17:16;38.83;;;20.92;;
23171;SDS011;11754;42.664;23.594;2023-02-23T06:19:41;35.55;;;22.05;;
23171;SDS011;11754;42.664;23.594;2023-02-23T06:22:07;42.17;;;23.75;;
23171;SDS011;11754;42.664;23.594;2023-02-23T06:24:33;42.08;;;23.23;;
23171;SDS011;11754;42.664;23.594;2023-02-23T06:26:58;52.33;;;25.73;;
23171;SDS011;11754;42.664;23.594;2023-02-23T06:29:24;42.35;;;23.70;;
23171;SDS011;11754;42.664;23.594;2023-02-23T06:31:49;44.03;;;23.90;;
23171;SDS011;11754;42.664;23.594;2023-02-23T06:34:15;51.42;;;26.70;;
23171;SDS011;11754;42.664;23.594;2023-02-23T06:36:40;44.58;;;25.85;;
23171;SDS011;11754;42.664;23.594;2023-02-23T06:39:06;37.42;;;22.67;;
23171;SDS011;11754;42.664;23.594;2023-02-23T06:41:33;34.25;;;19.08;;
23171;SDS011;11754;42.664;23.594;2023-02-23T06:43:59;74.05;;;40.03;;
23171;SDS011;11754;42.664;23.594;2023-02-23T06:46:25;51.70;;;27.60;;
23171;SDS011;11754;42.664;23.594;2023-02-23T06:48:53;45.70;;;25.10;;
23171;SDS011;11754;42.664;23.594;2023-02-23T06:51:19;48.17;;;27.45;;
23171;SDS011;11754;42.664;23.594;2023-02-23T06:53:45;25.83;;;17.42;;
23171;SDS011;11754;42.664;23.594;2023-02-23T06:56:10;29.60;;;17.33;;
23171;SDS011;11754;42.664;23.594;2023-02-23T06:58:38;44.70;;;22.33;;
23171;SDS011;11754;42.664;23.594;2023-02-23T07:01:04;41.47;;;22.48;;
23171;SDS011;11754;42.664;23.594;2023-02-23T07:03:30;30.88;;;18.90;;
23171;SDS011;11754;42.664;23.594;2023-02-23T07:05:55;26.05;;;16.90;;
23171;SDS011;11754;42.664;23.594;2023-02-23T07:08:21;30.65;;;18.15;;
23171;SDS011;11754;42.664;23.594;2023-02-23T07:10:46;30.58;;;18.73;;
23171;SDS011;11754;42.664;23.594;2023-02-23T07:13:12;24.98;;;18.02;;
23171;SDS011;11754;42.664;23.594;2023-02-23T07:15:38;26.85;;;15.93;;
23171;SDS011;11754;42.664;23.594;2023-02-23T07:18:04;31.15;;;17.73;;
23171;SDS011;11754;42.664;23.594;2023-02-23T07:20:31;42.47;;;19.27;;
23171;SDS011;11754;42.664;23.594;2023-02-23T07:22:57;59.08;;;23.80;;
23171;SDS011;11754;42.664;23.594;2023-02-23T07:25:24;61.70;;;25.10;;
23171;SDS011;11754;42.664;23.594;2023-02-23T07:27:53;48.67;;;25.55;;
23171;SDS011;11754;42.664;23.594;2023-02-23T07:30:20;45.45;;;26.42;;
23171;SDS011;11754;42.664;23.594;2023-02-23T07:32:52;46.22;;;26.30;;
23171;SDS011;11754;42.664;23.594;2023-02-23T07:35:18;47.65;;;25.67;;
23171;SDS011;11754;42.664;23.594;2023-02-23T07:37:44;49.97;;;25.60;;
23171;SDS011;11754;42.664;23.594;2023-02-23T07:40:09;35.08;;;23.52;;
23171;SDS011;11754;42.664;23.594;2023-02-23T07:42:35;42.90;;;22.60;;
23171;SDS011;11754;42.664;23.594;2023-02-23T07:45:01;36.58;;;19.70;;
23171;SDS011;11754;42.664;23.594;2023-02-23T07:47:26;43.85;;;19.65;;
23171;SDS011;11754;42.664;23.594;2023-02-23T07:49:55;37.80;;;18.75;;
23171;SDS011;11754;42.664;23.594;2023-02-23T07:52:22;28.52;;;16.90;;
23171;SDS011;11754;42.664;23.594;2023-02-23T07:54:47;30.13;;;18.30;;
23171;SDS011;11754;42.664;23.594;2023-02-23T07:57:13;26.88;;;18.15;;
23171;SDS011;11754;42.664;23.594;2023-02-23T07:59:38;31.77;;;17.17;;
23171;SDS011;11754;42.664;23.594;2023-02-23T08:02:04;26.05;;;15.43;;
23171;SDS011;11754;42.664;23.594;2023-02-23T08:04:29;23.45;;;14.45;;
23171;SDS011;11754;42.664;23.594;2023-02-23T08:06:54;21.40;;;13.90;;
23171;SDS011;11754;42.664;23.594;2023-02-23T08:09:20;24.48;;;14.23;;
23171;SDS011;11754;42.664;23.594;2023-02-23T08:11:45;22.75;;;13.57;;
23171;SDS011;11754;42.664;23.594;2023-02-23T08:14:10;18.50;;;12.10;;
23171;SDS011;11754;42.664;23.594;2023-02-23T08:16:37;20.95;;;13.43;;
23171;SDS011;11754;42.664;23.594;2023-02-23T08:19:02;23.75;;;14.05;;
23171;SDS011;11754;42.664;23.594;2023-02-23T08:21:28;17.27;;;12.13;;
23171;SDS011;11754;42.664;23.594;2023-02-23T08:23:54;21.55;;;13.38;;
23171;SDS011;11754;42.664;23.594;2023-02-23T08:26:21;16.00;;;11.63;;
23171;SDS011;11754;42.664;23.594;2023-02-23T08:28:48;17.45;;;11.40;;
23171;SDS011;11754;42.664;23.594;2023-02-23T08:31:13;22.67;;;11.40;;
23171;SDS011;11754;42.664;23.594;2023-02-23T08:33:40;15.02;;;10.55;;
23171;SDS011;11754;42.664;23.594;2023-02-23T08:36:06;17.20;;;10.15;;
23171;SDS011;11754;42.664;23.594;2023-02-23T08:38:32;19.55;;;10.48;;
23171;SDS011;11754;42.664;23.594;2023-02-23T08:41:00;18.25;;;10.07;;
23171;SDS011;11754;42.664;23.594;2023-02-23T08:43:27;17.13;;;9.77;;
23171;SDS011;11754;42.664;23.594;2023-02-23T08:45:52;16.73;;;9.50;;
23171;SDS011;11754;42.664;23.594;2023-02-23T08:48:18;19.30;;;10.00;;
23171;SDS011;11754;42.664;23.594;2023-02-23T08:50:46;15.52;;;9.48;;
23171;SDS011;11754;42.664;23.594;2023-02-23T08:53:13;13.70;;;8.95;;
23171;SDS011;11754;42.664;23.594;2023-02-23T08:55:40;17.20;;;9.23;;
23171;SDS011;11754;42.664;23.594;2023-02-23T08:58:06;19.10;;;10.82;;
23171;SDS011;11754;42.664;23.594;2023-02-23T09:00:34;15.60;;;8.98;;
23171;SDS011;11754;42.664;23.594;2023-02-23T09:03:00;13.82;;;8.85;;
23171;SDS011;11754;42.664;23.594;2023-02-23T09:05:26;17.58;;;9.55;;
23171;SDS011;11754;42.664;23.594;2023-02-23T09:07:51;18.60;;;9.10;;
23171;SDS011;11754;42.664;23.594;2023-02-23T09:10:18;11.93;;;8.85;;
23171;SDS011;11754;42.664;23.594;2023-02-23T09:12:44;11.70;;;8.25;;
23171;SDS011;11754;42.664;23.594;2023-02-23T09:15:10;15.88;;;8.63;;
23171;SDS011;11754;42.664;23.594;2023-02-23T09:17:36;12.23;;;8.05;;
23171;SDS011;11754;42.664;23.594;2023-02-23T09:20:02;13.90;;;8.48;;
23171;SDS011;11754;42.664;23.594;2023-02-23T09:22:29;17.90;;;8.52;;
23171;SDS011;11754;42.664;23.594;2023-02-23T09:24:54;14.05;;;8.23;;
23171;SDS011;11754;42.664;23.594;2023-02-23T09:27:19;19.20;;;8.65;;
23171;SDS011;11754;42.664;23.594;2023-02-23T09:29:45;16.02;;;8.13;;
23171;SDS011;11754;42.664;23.594;2023-02-23T09:32:10;16.13;;;8.05;;
23171;SDS011;11754;42.664;23.594;2023-02-23T09:34:36;10.68;;;7.15;;
23171;SDS011;11754;42.664;23.594;2023-02-23T09:37:02;10.88;;;7.07;;
23171;SDS011;11754;42.664;23.594;2023-02-23T09:39:28;10.60;;;6.53;;
23171;SDS011;11754;42.664;23.594;2023-02-23T09:50:07;19.60;;;7.18;;
23171;SDS011;11754;42.664;23.594;2023-02-23T09:52:41;16.55;;;6.50;;
23171;SDS011;11754;42.664;23.594;2023-02-23T09:55:11;14.93;;;6.97;;
23171;SDS011;11754;42.664;23.594;2023-02-23T09:57:39;12.13;;;6.50;;
23171;SDS011;11754;42.664;23.594;2023-02-23T10:00:15;12.18;;;6.20;;
23171;SDS011;11754;42.664;23.594;2023-02-23T10:05:16;13.90;;;6.13;;
23171;SDS011;11754;42.664;23.594;2023-02-23T10:07:48;12.85;;;5.85;;
23171;SDS011;11754;42.664;23.594;2023-02-23T10:10:28;10.50;;;5.72;;
23171;SDS011;11754;42.664;23.594;2023-02-23T10:23:52;8.23;;;4.30;;
23171;SDS011;11754;42.664;23.594;2023-02-23T10:26:23;6.82;;;2.70;;
23171;SDS011;11754;42.664;23.594;2023-02-23T10:28:51;6.82;;;2.60;;
23171;SDS011;11754;42.664;23.594;2023-02-23T10:34:12;4.32;;;2.45;;
23171;SDS011;11754;42.664;23.594;2023-02-23T10:36:41;4.78;;;2.90;;
23171;SDS011;11754;42.664;23.594;2023-02-23T10:39:10;4.00;;;2.45;;
23171;SDS011;11754;42.664;23.594;2023-02-23T10:41:37;4.90;;;2.25;;
23171;SDS011;11754;42.664;23.594;2023-02-23T10:44:04;6.22;;;2.45;;
23171;SDS011;11754;42.664;23.594;2023-02-23T10:46:38;4.25;;;2.60;;
23171;SDS011;11754;42.664;23.594;2023-02-23T10:49:05;5.38;;;2.50;;
23171;SDS011;11754;42.664;23.594;2023-02-23T10:51:36;3.70;;;2.80;;
23171;SDS011;11754;42.664;23.594;2023-02-23T10:57:03;6.13;;;3.75;;
23171;SDS011;11754;42.664;23.594;2023-02-23T10:59:32;4.80;;;3.47;;
23171;SDS011;11754;42.664;23.594;2023-02-23T11:01:58;5.95;;;2.83;;
23171;SDS011;11754;42.664;23.594;2023-02-23T11:04:25;9.15;;;4.65;;
23171;SDS011;11754;42.664;23.594;2023-02-23T11:09:47;6.72;;;2.60;;
23171;SDS011;11754;42.664;23.594;2023-02-23T11:14:59;3.35;;;2.42;;
23171;SDS011;11754;42.664;23.594;2023-02-23T11:17:59;9.98;;;5.38;;
23171;SDS011;11754;42.664;23.594;2023-02-23T11:20:45;4.70;;;2.20;;
23171;SDS011;11754;42.664;23.594;2023-02-23T11:25:53;3.50;;;2.03;;
23171;SDS011;11754;42.664;23.594;2023-02-23T11:28:25;5.43;;;1.90;;
23171;SDS011;11754;42.664;23.594;2023-02-23T11:30:59;3.57;;;1.80;;
23171;SDS011;11754;42.664;23.594;2023-02-23T11:33:32;2.72;;;1.90;;
23171;SDS011;11754;42.664;23.594;2023-02-23T11:38:37;2.65;;;1.50;;
23171;SDS011;11754;42.664;23.594;2023-02-23T11:41:16;2.88;;;1.55;;
23171;SDS011;11754;42.664;23.594;2023-02-23T11:43:55;4.88;;;1.90;;
23171;SDS011;11754;42.664;23.594;2023-02-23T11:46:22;2.40;;;1.60;;
23171;SDS011;11754;42.664;23.594;2023-02-23T11:51:32;4.97;;;2.60;;
23171;SDS011;11754;42.664;23.594;2023-02-23T11:54:01;7.65;;;3.85;;
23171;SDS011;11754;42.664;23.594;2023-02-23T11:56:28;3.47;;;1.60;;
23171;SDS011;11754;42.664;23.594;2023-02-23T11:59:00;11.57;;;2.00;;
23171;SDS011;11754;42.664;23.594;2023-02-23T12:06:50;6.88;;;4.40;;
23171;SDS011;11754;42.664;23.594;2023-02-23T12:09:27;5.85;;;2.20;;
23171;SDS011;11754;42.664;23.594;2023-02-23T12:14:40;2.95;;;1.65;;
23171;SDS011;11754;42.664;23.594;2023-02-23T12:17:24;4.63;;;1.83;;
23171;SDS011;11754;42.664;23.594;2023-02-23T12:20:05;5.05;;;2.05;;
23171;SDS011;11754;42.664;23.594;2023-02-23T12:22:38;3.85;;;1.83;;
23171;SDS011;11754;42.664;23.594;2023-02-23T12:25:25;2.83;;;1.80;;
23171;SDS011;11754;42.664;23.594;2023-02-23T12:30:39;4.32;;;1.95;;
23171;SDS011;11754;42.664;23.594;2023-02-23T12:41:13;3.75;;;2.00;;
23171;SDS011;11754;42.664;23.594;2023-02-23T12:43:46;5.55;;;2.25;;
23171;SDS011;11754;42.664;23.594;2023-02-23T12:51:42;2.90;;;2.10;;
23171;SDS011;11754;42.664;23.594;2023-02-23T12:54:16;4.65;;;2.20;;
23171;SDS011;11754;42.664;23.594;2023-02-23T12:59:41;3.42;;;2.00;;
23171;SDS011;11754;42.664;23.594;2023-02-23T13:02:40;4.88;;;2.30;;
23171;SDS011;11754;42.664;23.594;2023-02-23T13:05:19;4.22;;;2.50;;
23171;SDS011;11754;42.664;23.594;2023-02-23T13:08:06;3.67;;;2.20;;
23171;SDS011;11754;42.664;23.594;2023-02-23T13:13:17;3.63;;;2.50;;
23171;SDS011;11754;42.664;23.594;2023-02-23T13:15:49;6.78;;;2.25;;
23171;SDS011;11754;42.664;23.594;2023-02-23T13:28:45;5.82;;;2.80;;
23171;SDS011;11754;42.664;23.594;2023-02-23T13:31:25;5.38;;;3.33;;
23171;SDS011;11754;42.664;23.594;2023-02-23T13:33:54;9.02;;;3.40;;
23171;SDS011;11754;42.664;23.594;2023-02-23T13:36:22;6.75;;;3.50;;
23171;SDS011;11754;42.664;23.594;2023-02-23T13:41:35;8.98;;;3.97;;
23171;SDS011;11754;42.664;23.594;2023-02-23T13:44:16;13.45;;;3.88;;
23171;SDS011;11754;42.664;23.594;2023-02-23T13:49:22;8.45;;;4.10;;
23171;SDS011;11754;42.664;23.594;2023-02-23T13:52:13;7.55;;;4.55;;
23171;SDS011;11754;42.664;23.594;2023-02-23T13:54:55;6.47;;;3.97;;
23171;SDS011;11754;42.664;23.594;2023-02-23T13:59:54;11.77;;;4.07;;
23171;SDS011;11754;42.664;23.594;2023-02-23T14:07:40;9.75;;;4.43;;
23171;SDS011;11754;42.664;23.594;2023-02-23T14:10:15;7.72;;;4.20;;
23171;SDS011;11754;42.664;23.594;2023-02-23T14:15:49;20.20;;;8.15;;
23171;SDS011;11754;42.664;23.594;2023-02-23T14:18:31;8.20;;;4.70;;
23171;SDS011;11754;42.664;23.594;2023-02-23T14:31:51;8.52;;;5.22;;
23171;SDS011;11754;42.664;23.594;2023-02-23T14:34:20;14.43;;;5.20;;
23171;SDS011;11754;42.664;23.594;2023-02-23T14:36:49;11.27;;;5.03;;
23171;SDS011;11754;42.664;23.594;2023-02-23T14:39:22;14.40;;;6.25;;
23171;SDS011;11754;42.664;23.594;2023-02-23T14:41:53;8.73;;;5.65;;
23171;SDS011;11754;42.664;23.594;2023-02-23T14:46:59;10.30;;;6.57;;
23171;SDS011;11754;42.664;23.594;2023-02-23T14:49:32;14.73;;;9.23;;
23171;SDS011;11754;42.664;23.594;2023-02-23T14:52:12;12.53;;;6.90;;
23171;SDS011;11754;42.664;23.594;2023-02-23T14:54:44;11.68;;;6.55;;
23171;SDS011;11754;42.664;23.594;2023-02-23T14:57:18;15.60;;;7.95;;
23171;SDS011;11754;42.664;23.594;2023-02-23T14:59:53;12.15;;;8.15;;
23171;SDS011;11754;42.664;23.594;2023-02-23T15:02:21;16.70;;;8.85;;
23171;SDS011;11754;42.664;23.594;2023-02-23T15:04:48;12.20;;;6.97;;
23171;SDS011;11754;42.664;23.594;2023-02-23T15:07:16;16.85;;;8.10;;
23171;SDS011;11754;42.664;23.594;2023-02-23T15:09:49;13.75;;;7.45;;
23171;SDS011;11754;42.664;23.594;2023-02-23T15:12:19;18.70;;;8.00;;
23171;SDS011;11754;42.664;23.594;2023-02-23T15:14:47;13.85;;;8.98;;
23171;SDS011;11754;42.664;23.594;2023-02-23T15:17:19;14.27;;;8.48;;
23171;SDS011;11754;42.664;23.594;2023-02-23T15:19:49;13.98;;;6.93;;
23171;SDS011;11754;42.664;23.594;2023-02-23T15:22:27;13.35;;;7.50;;
23171;SDS011;11754;42.664;23.594;2023-02-23T15:24:57;13.15;;;7.15;;
23171;SDS011;11754;42.664;23.594;2023-02-23T15:27:34;16.60;;;10.02;;
23171;SDS011;11754;42.664;23.594;2023-02-23T15:32:46;17.67;;;8.82;;
23171;SDS011;11754;42.664;23.594;2023-02-23T15:35:13;24.50;;;15.02;;
23171;SDS011;11754;42.664;23.594;2023-02-23T15:37:39;22.88;;;12.10;;
23171;SDS011;11754;42.664;23.594;2023-02-23T15:40:06;17.10;;;10.82;;
23171;SDS011;11754;42.664;23.594;2023-02-23T15:42:40;18.80;;;12.57;;
23171;SDS011;11754;42.664;23.594;2023-02-23T15:45:21;17.88;;;10.35;;
23171;SDS011;11754;42.664;23.594;2023-02-23T15:47:55;15.25;;;10.35;;
23171;SDS011;11754;42.664;23.594;2023-02-23T15:50:25;15.45;;;8.85;;
23171;SDS011;11754;42.664;23.594;2023-02-23T15:52:59;13.03;;;8.97;;
23171;SDS011;11754;42.664;23.594;2023-02-23T15:57:57;22.85;;;10.52;;
23171;SDS011;11754;42.664;23.594;2023-02-23T16:00:35;17.05;;;9.45;;
23171;SDS011;11754;42.664;23.594;2023-02-23T16:03:04;20.13;;;9.35;;
23171;SDS011;11754;42.664;23.594;2023-02-23T16:05:31;17.20;;;9.90;;
23171;SDS011;11754;42.664;23.594;2023-02-23T16:08:02;18.92;;;10.40;;
23171;SDS011;11754;42.664;23.594;2023-02-23T16:10:29;20.40;;;9.70;;
23171;SDS011;11754;42.664;23.594;2023-02-23T16:13:08;16.05;;;8.82;;
23171;SDS011;11754;42.664;23.594;2023-02-23T16:15:37;19.20;;;10.05;;
23171;SDS011;11754;42.664;23.594;2023-02-23T16:18:04;19.65;;;9.85;;
23171;SDS011;11754;42.664;23.594;2023-02-23T16:20:41;20.20;;;9.05;;
23171;SDS011;11754;42.664;23.594;2023-02-23T16:23:28;16.73;;;9.15;;
23171;SDS011;11754;42.664;23.594;2023-02-23T16:25:57;26.42;;;14.52;;
23171;SDS011;11754;42.664;23.594;2023-02-23T16:28:27;19.83;;;12.45;;
23171;SDS011;11754;42.664;23.594;2023-02-23T16:30:59;22.38;;;13.55;;
23171;SDS011;11754;42.664;23.594;2023-02-23T16:33:30;28.90;;;14.88;;
23171;SDS011;11754;42.664;23.594;2023-02-23T16:41:31;33.65;;;14.30;;
23171;SDS011;11754;42.664;23.594;2023-02-23T16:44:02;21.75;;;10.77;;
23171;SDS011;11754;42.664;23.594;2023-02-23T16:46:31;21.95;;;12.65;;
23171;SDS011;11754;42.664;23.594;2023-02-23T16:49:16;25.38;;;12.75;;
23171;SDS011;11754;42.664;23.594;2023-02-23T16:51:42;23.05;;;13.60;;
23171;SDS011;11754;42.664;23.594;2023-02-23T16:54:07;26.77;;;15.05;;
23171;SDS011;11754;42.664;23.594;2023-02-23T16:56:32;24.70;;;13.93;;
23171;SDS011;11754;42.664;23.594;2023-02-23T16:59:00;28.40;;;13.65;;
23171;SDS011;11754;42.664;23.594;2023-02-23T17:01:28;26.90;;;14.18;;
23171;SDS011;11754;42.664;23.594;2023-02-23T17:03:53;22.08;;;12.88;;
23171;SDS011;11754;42.664;23.594;2023-02-23T17:06:19;31.73;;;14.82;;
23171;SDS011;11754;42.664;23.594;2023-02-23T17:08:45;43.05;;;23.00;;
23171;SDS011;11754;42.664;23.594;2023-02-23T17:11:11;64.43;;;27.55;;
23171;SDS011;11754;42.664;23.594;2023-02-23T17:13:36;35.17;;;18.05;;
23171;SDS011;11754;42.664;23.594;2023-02-23T17:16:03;30.75;;;15.82;;
23171;SDS011;11754;42.664;23.594;2023-02-23T17:18:34;34.38;;;17.98;;
23171;SDS011;11754;42.664;23.594;2023-02-23T17:21:05;39.25;;;20.45;;
23171;SDS011;11754;42.664;23.594;2023-02-23T17:23:33;30.00;;;16.92;;
23171;SDS011;11754;42.664;23.594;2023-02-23T17:26:14;31.27;;;18.00;;
23171;SDS011;11754;42.664;23.594;2023-02-23T17:28:43;34.55;;;20.00;;
23171;SDS011;11754;42.664;23.594;2023-02-23T17:31:08;31.45;;;18.00;;